createdAt,value
2018-07-23T00:01:09.862Z,19.50
2018-07-23T00:03:38.862Z,19.50
2018-07-23T00:06:07.553Z,19.40
2018-07-23T00:08:35.878Z,19.40
2018-07-23T00:13:32.387Z,19.40
2018-07-23T00:16:00.717Z,19.60
2018-07-23T00:18:29.037Z,19.60
2018-07-23T00:20:57.407Z,19.60
2018-07-23T00:23:26.221Z,19.60
2018-07-23T00:25:54.600Z,19.60
2018-07-23T00:28:22.955Z,19.60
2018-07-23T00:30:51.364Z,19.60
2018-07-23T00:33:19.775Z,19.60
2018-07-23T00:38:16.320Z,19.40
2018-07-23T00:40:44.628Z,19.40
2018-07-23T00:43:13.044Z,19.40
2018-07-23T00:45:41.394Z,19.30
2018-07-23T00:48:09.789Z,19.30
2018-07-23T00:50:38.168Z,19.30
2018-07-23T00:53:06.599Z,19.20
2018-07-23T00:55:34.908Z,19.20
2018-07-23T00:58:03.355Z,19.10
2018-07-23T01:00:31.677Z,19.10
2018-07-23T01:03:04.558Z,19.00
2018-07-23T01:05:33.034Z,19.00
2018-07-23T01:08:01.511Z,18.90
2018-07-23T01:10:29.941Z,18.90
2018-07-23T01:12:58.318Z,18.80
2018-07-23T01:15:26.727Z,18.80
2018-07-23T01:17:55.053Z,18.80
2018-07-23T01:20:23.508Z,18.70
2018-07-23T01:22:51.943Z,18.60
2018-07-23T01:25:20.599Z,18.60
2018-07-23T01:27:49.017Z,18.60
2018-07-23T01:30:17.358Z,18.60
2018-07-23T01:32:45.725Z,18.60
2018-07-23T01:35:14.400Z,18.50
2018-07-23T01:37:42.772Z,18.60
2018-07-23T01:40:11.103Z,18.60
2018-07-23T01:42:39.476Z,18.60
2018-07-23T01:45:07.834Z,18.60
2018-07-23T01:47:37.610Z,18.60
2018-07-23T01:50:06.120Z,18.50
2018-07-23T01:52:34.488Z,18.50
2018-07-23T01:55:02.782Z,18.50
2018-07-23T01:57:31.111Z,18.50
2018-07-23T01:59:59.434Z,18.50
2018-07-23T02:02:27.776Z,18.50
2018-07-23T02:04:56.173Z,18.40
2018-07-23T02:07:24.500Z,18.40
2018-07-23T02:09:52.860Z,18.40
2018-07-23T02:12:21.256Z,18.40
2018-07-23T02:14:50.631Z,18.40
2018-07-23T02:17:19.067Z,18.40
2018-07-23T02:19:47.386Z,18.40
2018-07-23T02:22:15.825Z,18.50
2018-07-23T02:24:44.411Z,18.50
2018-07-23T02:27:12.745Z,18.60
2018-07-23T02:29:41.095Z,18.60
2018-07-23T02:32:09.430Z,18.60
2018-07-23T02:34:37.780Z,18.60
2018-07-23T02:37:06.566Z,18.60
2018-07-23T02:39:34.806Z,18.60
2018-07-23T02:42:03.168Z,18.60
2018-07-23T02:44:31.442Z,18.60
2018-07-23T02:46:59.809Z,18.60
2018-07-23T02:49:28.205Z,18.60
2018-07-23T02:51:56.593Z,18.60
2018-07-23T02:54:24.894Z,18.60
2018-07-23T02:56:53.734Z,18.50
2018-07-23T02:59:22.093Z,18.40
2018-07-23T03:01:50.491Z,18.40
2018-07-23T03:04:18.892Z,18.40
2018-07-23T03:06:47.233Z,18.30
2018-07-23T03:09:15.633Z,18.20
2018-07-23T03:11:44.047Z,18.20
2018-07-23T03:14:12.449Z,18.20
2018-07-23T03:16:40.904Z,18.20
2018-07-23T03:19:09.213Z,18.10
2018-07-23T03:21:37.640Z,18.10
2018-07-23T03:24:05.977Z,18.10
2018-07-23T03:26:34.351Z,18.10
2018-07-23T03:29:02.867Z,18.10
2018-07-23T03:31:31.303Z,18.20
2018-07-23T03:33:59.622Z,18.20
2018-07-23T03:36:27.982Z,18.20
2018-07-23T03:38:56.336Z,18.20
2018-07-23T03:41:24.676Z,18.30
2018-07-23T03:43:53.099Z,18.40
2018-07-23T03:46:21.442Z,18.40
2018-07-23T03:48:49.769Z,18.50
2018-07-23T03:51:18.150Z,18.50
2018-07-23T03:53:46.566Z,18.60
2018-07-23T03:56:14.894Z,18.60
2018-07-23T03:58:43.227Z,18.70
2018-07-23T04:01:11.585Z,18.80
2018-07-23T04:03:39.986Z,18.80
2018-07-23T04:06:08.301Z,18.90
2018-07-23T04:08:36.638Z,19.00
2018-07-23T04:11:04.950Z,19.00
2018-07-23T04:13:33.287Z,19.10
2018-07-23T04:16:01.647Z,19.20
2018-07-23T04:18:30.045Z,19.20
2018-07-23T04:20:58.379Z,19.20
2018-07-23T04:23:26.714Z,19.30
2018-07-23T04:25:55.044Z,19.30
2018-07-23T04:28:23.431Z,19.40
2018-07-23T04:30:51.912Z,19.40
2018-07-23T04:33:20.342Z,19.40
2018-07-23T04:35:48.751Z,19.60
2018-07-23T04:38:17.060Z,19.60
2018-07-23T04:40:45.721Z,19.70
2018-07-23T04:43:14.291Z,20.10
2018-07-23T04:45:42.611Z,21.10
2018-07-23T04:48:11.033Z,22.20
2018-07-23T04:50:39.478Z,22.80
2018-07-23T04:53:07.901Z,23.30
2018-07-23T04:55:36.300Z,23.60
2018-07-23T04:58:04.956Z,24.10
2018-07-23T05:00:33.318Z,24.50
2018-07-23T05:03:01.680Z,25.00
2018-07-23T05:05:30.388Z,25.30
2018-07-23T05:07:58.736Z,25.30
2018-07-23T05:10:27.121Z,25.60
2018-07-23T05:12:55.463Z,25.80
2018-07-23T05:15:23.802Z,26.00
2018-07-23T05:17:52.134Z,25.80
2018-07-23T05:20:20.419Z,25.90
2018-07-23T05:22:48.777Z,26.30
2018-07-23T05:25:17.087Z,26.40
2018-07-23T05:27:45.508Z,26.50
2018-07-23T05:30:13.906Z,26.50
2018-07-23T05:32:42.240Z,26.90
2018-07-23T05:35:10.786Z,26.90
2018-07-23T05:37:39.108Z,27.30
2018-07-23T05:40:07.703Z,27.20
2018-07-23T05:42:38.074Z,27.70
2018-07-23T05:47:34.791Z,28.20
2018-07-23T05:50:04.147Z,28.30
2018-07-23T05:52:32.389Z,28.70
2018-07-23T05:55:31.250Z,29.00
2018-07-23T05:57:59.593Z,28.90
2018-07-23T06:00:27.904Z,28.60
2018-07-23T06:02:56.261Z,28.80
2018-07-23T06:05:24.541Z,29.10
2018-07-23T06:07:52.898Z,28.70
2018-07-23T06:10:21.194Z,29.00
2018-07-23T06:12:49.663Z,29.60
2018-07-23T06:15:18.078Z,29.60
2018-07-23T06:17:46.443Z,29.80
2018-07-23T06:20:14.871Z,29.90
2018-07-23T06:22:43.484Z,29.70
2018-07-23T06:25:11.765Z,30.40
2018-07-23T06:27:40.049Z,30.80
2018-07-23T06:30:10.111Z,31.10
2018-07-23T06:32:38.435Z,31.00
2018-07-23T06:35:06.776Z,31.40
2018-07-23T06:37:35.636Z,31.40
2018-07-23T06:40:04.827Z,31.20
2018-07-23T06:42:33.209Z,30.40
2018-07-23T06:45:01.564Z,31.20
2018-07-23T06:47:29.865Z,31.20
2018-07-23T06:49:58.401Z,31.10
2018-07-23T06:52:26.833Z,31.20
2018-07-23T06:54:55.245Z,31.00
2018-07-23T06:57:23.618Z,31.60
2018-07-23T06:59:52.003Z,31.40
2018-07-23T07:02:20.372Z,31.50
2018-07-23T07:04:48.715Z,31.60
2018-07-23T07:07:17.028Z,31.60
2018-07-23T07:09:45.339Z,31.20
2018-07-23T07:12:13.661Z,31.20
2018-07-23T07:14:42.043Z,31.60
2018-07-23T07:17:10.496Z,31.50
2018-07-23T07:19:38.801Z,31.40
2018-07-23T07:22:08.125Z,31.50
2018-07-23T07:24:36.476Z,31.40
2018-07-23T07:27:04.993Z,31.50
2018-07-23T07:29:33.317Z,31.40
2018-07-23T07:34:29.903Z,31.10
2018-07-23T07:37:01.728Z,32.00
2018-07-23T07:41:58.202Z,31.70
2018-07-23T07:44:27.552Z,31.20
2018-07-23T07:46:55.930Z,31.90
2018-07-23T07:49:24.306Z,32.00
2018-07-23T07:51:52.703Z,32.00
2018-07-23T07:54:21.058Z,31.70
2018-07-23T07:56:49.445Z,31.80
2018-07-23T07:59:17.924Z,32.00
2018-07-23T08:01:46.256Z,32.10
2018-07-23T08:04:14.720Z,32.00
2018-07-23T08:06:43.088Z,32.00
2018-07-23T08:09:11.451Z,32.20
2018-07-23T08:11:40.182Z,32.00
2018-07-23T08:14:08.598Z,32.20
2018-07-23T08:16:37.065Z,32.50
2018-07-23T08:19:05.463Z,32.40
2018-07-23T08:21:33.819Z,32.50
2018-07-23T08:24:02.269Z,31.90
2018-07-23T08:28:58.774Z,32.00
2018-07-23T08:31:27.126Z,32.60
2018-07-23T08:33:55.557Z,32.50
2018-07-23T08:36:23.901Z,31.80
2018-07-23T08:38:52.292Z,31.80
2018-07-23T08:41:20.604Z,32.20
2018-07-23T08:43:48.956Z,32.40
2018-07-23T08:46:17.418Z,32.00
2018-07-23T08:48:45.838Z,32.20
2018-07-23T08:51:14.342Z,32.70
2018-07-23T08:53:42.721Z,32.50
2018-07-23T08:56:11.056Z,32.30
2018-07-23T08:58:39.589Z,32.50
2018-07-23T09:01:07.970Z,32.80
2018-07-23T09:06:04.425Z,31.60
2018-07-23T09:08:32.771Z,31.40
2018-07-23T09:11:01.175Z,32.00
2018-07-23T09:13:29.554Z,32.00
2018-07-23T09:15:57.879Z,32.10
2018-07-23T09:18:26.250Z,32.00
2018-07-23T10:42:52.652Z,32.30
2018-07-23T10:45:21.059Z,31.70
2018-07-23T10:47:49.442Z,31.50
2018-07-23T10:50:17.858Z,31.60
2018-07-23T10:52:46.220Z,31.80
2018-07-23T10:55:14.723Z,31.30
2018-07-23T10:57:43.024Z,31.20
2018-07-23T11:00:11.502Z,31.60
2018-07-23T11:02:39.785Z,31.10
2018-07-23T11:05:08.934Z,30.80
2018-07-23T11:07:37.282Z,31.20
2018-07-23T11:10:06.673Z,31.60
2018-07-23T11:12:35.050Z,31.50
2018-07-23T11:15:03.485Z,31.40
2018-07-23T11:17:31.750Z,31.20
2018-07-23T11:20:00.052Z,30.90
2018-07-23T11:22:28.348Z,30.50
2018-07-23T11:24:56.724Z,30.60
2018-07-23T11:27:25.048Z,30.50
2018-07-23T11:29:53.350Z,30.20
2018-07-23T11:32:21.669Z,30.10
2018-07-23T11:34:50.056Z,30.00
2018-07-23T11:37:18.493Z,30.00
2018-07-23T11:39:46.813Z,30.20
2018-07-23T11:42:15.139Z,30.30
2018-07-23T11:44:43.504Z,30.30
2018-07-23T11:47:12.211Z,29.60
2018-07-23T11:49:40.490Z,29.40
2018-07-23T11:52:14.358Z,28.80
2018-07-23T11:54:37.085Z,29.30
2018-07-23T11:57:05.546Z,29.20
2018-07-23T11:59:33.817Z,29.30
2018-07-23T12:02:02.063Z,28.90
2018-07-23T12:04:30.402Z,29.00
2018-07-23T12:06:58.661Z,29.20
2018-07-23T12:09:26.951Z,29.50
2018-07-23T12:11:55.386Z,29.40
2018-07-23T12:14:23.726Z,29.20
2018-07-23T12:16:52.967Z,29.20
2018-07-23T12:19:21.272Z,29.30
2018-07-23T12:21:49.534Z,28.80
2018-07-23T12:24:17.823Z,29.00
2018-07-23T12:26:47.094Z,28.80
2018-07-23T12:29:15.445Z,28.70
2018-07-23T12:31:43.774Z,28.90
2018-07-23T12:34:13.125Z,29.20
2018-07-23T12:36:41.456Z,29.40
2018-07-23T12:39:11.714Z,29.40
2018-07-23T12:41:40.341Z,29.30
2018-07-23T12:44:08.811Z,29.20
2018-07-23T12:46:37.090Z,29.20
2018-07-23T12:49:05.405Z,29.20
2018-07-23T12:51:33.675Z,28.90
2018-07-23T12:54:01.967Z,28.60
2018-07-23T12:56:30.261Z,28.60
2018-07-23T12:58:58.700Z,28.60
2018-07-23T13:01:26.985Z,28.80
2018-07-23T13:03:55.386Z,28.90
2018-07-23T13:06:23.673Z,28.80
2018-07-23T13:08:51.999Z,28.70
2018-07-23T13:11:20.316Z,28.30
2018-07-23T13:13:48.672Z,28.60
2018-07-23T13:16:17.029Z,28.60
2018-07-23T13:18:45.238Z,28.60
2018-07-23T13:21:13.518Z,28.70
2018-07-23T13:23:41.927Z,28.80
2018-07-23T13:26:13.742Z,28.60
2018-07-23T13:28:42.023Z,28.60
2018-07-23T13:31:10.322Z,28.60
2018-07-23T13:33:38.598Z,28.80
2018-07-23T13:36:07.965Z,28.70
2018-07-23T13:38:59.922Z,28.70
2018-07-23T13:41:28.260Z,28.90
2018-07-23T13:43:59.727Z,28.80
2018-07-23T13:46:28.218Z,28.70
2018-07-23T13:48:56.534Z,28.30
2018-07-23T13:51:28.758Z,28.30
2018-07-23T13:53:57.052Z,28.30
2018-07-23T13:56:25.331Z,28.40
2018-07-23T13:58:53.669Z,28.60
2018-07-23T14:01:23.067Z,28.50
2018-07-23T14:03:51.439Z,28.30
2018-07-23T14:06:19.855Z,28.20
2018-07-23T14:08:48.214Z,28.30
2018-07-23T14:11:16.581Z,28.50
2018-07-23T14:13:44.917Z,28.50
2018-07-23T14:16:13.224Z,28.50
2018-07-23T14:18:41.586Z,28.30
2018-07-23T14:21:09.855Z,28.10
2018-07-23T14:23:38.206Z,28.10
2018-07-23T14:26:06.531Z,28.20
2018-07-23T14:28:34.929Z,28.30
2018-07-23T14:31:03.335Z,28.20
2018-07-23T14:33:31.673Z,28.30
2018-07-23T14:36:00.016Z,28.40
2018-07-23T14:38:28.377Z,28.20
2018-07-23T14:40:56.703Z,28.30
2018-07-23T14:43:25.100Z,28.30
2018-07-23T14:45:53.442Z,28.20
2018-07-23T14:50:49.931Z,28.30
2018-07-23T14:53:18.997Z,28.30
2018-07-23T14:55:49.336Z,28.60
2018-07-23T14:58:17.771Z,28.10
2018-07-23T15:00:46.109Z,28.20
2018-07-23T15:03:14.504Z,28.50
2018-07-23T15:05:42.944Z,28.40
2018-07-23T15:08:11.253Z,28.30
2018-07-23T15:10:39.645Z,28.20
2018-07-23T15:13:07.998Z,28.10
2018-07-23T15:15:36.393Z,28.20
2018-07-23T15:18:05.149Z,28.10
2018-07-23T15:20:33.441Z,28.00
2018-07-23T15:23:01.870Z,28.00
2018-07-23T15:25:30.186Z,27.90
2018-07-23T15:27:58.508Z,27.80
2018-07-23T15:30:26.987Z,27.90
2018-07-23T15:32:55.400Z,28.00
2018-07-23T15:35:23.778Z,28.00
2018-07-23T15:37:52.165Z,28.00
2018-07-23T15:40:20.469Z,27.90
2018-07-23T15:42:48.819Z,27.90
2018-07-23T15:45:17.240Z,27.80
2018-07-23T15:47:45.556Z,27.80
2018-07-23T15:50:13.922Z,27.90
2018-07-23T15:52:42.353Z,27.90
2018-07-23T15:55:10.665Z,27.90
2018-07-23T15:57:39.010Z,27.70
2018-07-23T16:46:17.509Z,27.80
2018-07-23T16:48:45.812Z,27.30
2018-07-23T16:51:14.143Z,27.20
2018-07-23T16:53:42.462Z,27.20
2018-07-23T16:56:10.765Z,27.10
2018-07-23T16:58:39.034Z,27.00
2018-07-23T17:01:07.338Z,27.00
2018-07-23T17:03:35.689Z,27.00
2018-07-23T17:06:04.075Z,27.00
2018-07-23T17:08:32.387Z,27.00
2018-07-23T17:11:00.779Z,27.00
2018-07-23T17:13:29.079Z,27.00
2018-07-23T17:15:57.413Z,27.00
2018-07-23T17:18:25.729Z,27.00
2018-07-23T17:20:54.048Z,26.90
2018-07-23T17:23:22.348Z,26.90
2018-07-23T17:25:50.704Z,26.70
2018-07-23T17:28:19.020Z,26.70
2018-07-23T17:30:47.373Z,26.70
2018-07-23T17:33:15.621Z,26.70
2018-07-23T17:35:43.895Z,26.70
2018-07-23T17:38:12.150Z,26.60
2018-07-23T17:40:40.608Z,26.50
2018-07-23T17:43:08.931Z,26.50
2018-07-23T17:45:37.277Z,26.50
2018-07-23T17:48:05.672Z,26.40
2018-07-23T17:50:34.045Z,26.40
2018-07-23T17:53:02.360Z,26.30
2018-07-23T17:55:30.652Z,26.20
2018-07-23T17:57:58.944Z,26.20
2018-07-23T18:00:27.363Z,26.20
2018-07-23T18:02:55.685Z,26.10
2018-07-23T18:05:23.974Z,26.00
2018-07-23T18:07:52.409Z,25.90
2018-07-23T18:10:20.701Z,25.90
2018-07-23T18:12:49.032Z,25.80
2018-07-23T18:15:17.411Z,25.70
2018-07-23T18:17:45.826Z,25.70
2018-07-23T18:20:14.178Z,25.60
2018-07-23T18:22:42.547Z,25.50
2018-07-23T18:25:10.951Z,25.50
2018-07-23T18:27:39.382Z,25.40
2018-07-23T18:30:07.753Z,25.30
2018-07-23T18:35:05.002Z,25.20
2018-07-23T18:37:33.356Z,25.20
2018-07-23T18:40:01.721Z,25.10
2018-07-23T18:42:30.137Z,25.00
2018-07-23T18:44:58.441Z,24.90
2018-07-23T18:47:26.741Z,24.80
2018-07-23T18:49:58.159Z,24.80
2018-07-23T18:54:57.373Z,24.60
2018-07-23T18:57:25.738Z,24.50
2018-07-23T18:59:54.104Z,24.40
2018-07-23T19:02:22.923Z,24.30
2018-07-23T19:07:19.449Z,24.20
2018-07-23T19:09:47.757Z,24.10
2018-07-23T19:12:16.121Z,24.10
2018-07-23T19:14:44.862Z,24.00
2018-07-23T19:17:14.296Z,24.00
2018-07-23T19:19:42.621Z,23.90
2018-07-23T19:22:10.909Z,23.90
2018-07-23T19:24:39.363Z,23.80
2018-07-23T19:27:08.020Z,23.60
2018-07-23T19:29:36.377Z,23.50
2018-07-23T19:32:04.787Z,23.50
2018-07-23T19:34:33.190Z,23.40
2018-07-23T19:37:01.481Z,23.40
2018-07-23T19:39:29.748Z,23.40
2018-07-23T19:41:58.043Z,23.30
2018-07-23T19:44:26.593Z,23.30
2018-07-23T19:46:54.865Z,23.20
2018-07-23T19:49:23.176Z,23.20
2018-07-23T19:54:19.529Z,23.00
2018-07-23T19:56:47.814Z,22.90
2018-07-23T19:59:16.195Z,22.90
2018-07-23T20:01:44.543Z,22.90
2018-07-23T20:04:12.957Z,22.90
2018-07-23T20:06:41.322Z,22.80
2018-07-23T20:11:38.489Z,22.70
2018-07-23T20:14:06.870Z,22.60
2018-07-23T20:16:35.133Z,22.60
2018-07-23T20:19:03.493Z,22.60
2018-07-23T20:21:32.053Z,22.50
2018-07-23T20:24:00.375Z,22.50
2018-07-23T20:26:32.977Z,22.50
2018-07-23T20:29:01.327Z,22.50
2018-07-23T20:31:29.724Z,22.50
2018-07-23T20:33:58.757Z,22.40
2018-07-23T20:36:27.406Z,22.40
2018-07-23T20:38:55.773Z,22.40
2018-07-23T20:41:24.665Z,22.30
2018-07-23T20:43:54.157Z,22.30
2018-07-23T20:46:22.485Z,22.30
2018-07-23T20:48:51.685Z,22.20
2018-07-23T20:53:48.497Z,22.30
2018-07-23T20:56:16.843Z,22.20
2018-07-23T20:58:45.131Z,22.30
2018-07-23T21:01:13.531Z,22.30
2018-07-23T21:03:42.000Z,22.20
2018-07-23T21:06:10.298Z,22.20
2018-07-23T21:08:38.537Z,22.20
2018-07-23T21:11:07.028Z,22.10
2018-07-23T21:13:35.357Z,22.10
2018-07-23T21:16:03.737Z,22.00
2018-07-23T21:18:32.215Z,21.90
2018-07-23T21:21:00.588Z,21.90
2018-07-23T21:23:28.853Z,21.90
2018-07-23T21:25:57.192Z,21.80
2018-07-23T21:28:25.574Z,21.70
2018-07-23T21:30:53.962Z,21.70
2018-07-23T21:33:22.500Z,21.60
2018-07-23T21:35:50.858Z,21.50
2018-07-23T21:38:19.335Z,21.50
2018-07-23T21:40:47.648Z,21.50
2018-07-23T21:43:16.030Z,21.40
2018-07-23T21:45:44.416Z,21.40
2018-07-23T21:48:14.239Z,21.40
2018-07-23T21:50:45.433Z,21.30
2018-07-23T21:53:13.698Z,21.20
2018-07-23T21:59:28.970Z,21.00
2018-07-23T22:01:57.321Z,21.00
2018-07-23T22:04:25.747Z,20.90
2018-07-23T22:06:54.115Z,20.80
2018-07-23T22:09:22.569Z,20.80
2018-07-23T22:11:50.960Z,20.70
2018-07-23T22:14:20.346Z,20.60
2018-07-23T22:16:48.732Z,20.50
2018-07-23T22:19:17.062Z,20.50
2018-07-23T22:21:45.378Z,20.40
2018-07-23T22:24:13.747Z,20.40
2018-07-23T22:26:42.031Z,20.30
2018-07-23T22:29:10.333Z,20.30
2018-07-23T22:31:38.850Z,20.20
2018-07-23T22:34:07.229Z,20.10
2018-07-23T22:36:35.566Z,20.00
2018-07-23T22:39:06.001Z,20.00
2018-07-23T22:41:34.318Z,20.00
2018-07-23T22:44:02.603Z,19.90
2018-07-23T22:46:30.911Z,19.90
2018-07-23T22:48:59.271Z,19.80
2018-07-23T22:51:27.541Z,19.70
2018-07-23T22:53:55.859Z,19.60
2018-07-23T22:56:24.345Z,19.60
2018-07-23T22:58:52.820Z,19.50
2018-07-23T23:01:21.203Z,19.50
2018-07-23T23:03:49.575Z,19.40
2018-07-23T23:06:17.953Z,19.40
2018-07-23T23:08:46.598Z,19.40
2018-07-23T23:13:43.207Z,19.30
2018-07-23T23:16:12.239Z,19.30
2018-07-23T23:18:40.501Z,19.20
2018-07-23T23:21:08.820Z,19.20
2018-07-23T23:23:37.085Z,19.10
2018-07-23T23:26:05.537Z,19.20
2018-07-23T23:28:34.221Z,19.10
2018-07-23T23:31:02.741Z,19.10
2018-07-23T23:33:31.043Z,19.00
2018-07-23T23:35:59.405Z,19.00
2018-07-23T23:38:27.690Z,19.10
2018-07-23T23:40:55.979Z,19.10
2018-07-23T23:43:24.323Z,19.10
2018-07-23T23:45:52.600Z,19.00
2018-07-23T23:48:20.938Z,19.00
2018-07-23T23:50:49.293Z,19.00
2018-07-23T23:53:17.670Z,19.00
2018-07-23T23:55:46.059Z,18.90
2018-07-23T23:58:14.402Z,18.90
